createdAt,value
2023-03-26T00:01:17.749Z,46.72
2023-03-26T00:03:31.951Z,46.75
2023-03-26T00:05:45.724Z,47.19
2023-03-26T00:07:58.759Z,47.31
2023-03-26T00:10:13.791Z,47.53
2023-03-26T00:12:28.075Z,47.23
2023-03-26T00:14:41.947Z,47.28
2023-03-26T00:16:56.914Z,47.36
2023-03-26T00:19:10.057Z,47.36
2023-03-26T00:21:27.252Z,47.31
2023-03-26T00:23:40.176Z,47.75
2023-03-26T00:25:55.611Z,48.05
2023-03-26T00:28:09.624Z,48.23
2023-03-26T00:30:23.101Z,48.25
2023-03-26T00:32:36.809Z,48.61
2023-03-26T00:34:55.370Z,48.43
2023-03-26T00:37:10.862Z,48.39
2023-03-26T00:39:24.996Z,48.42
2023-03-26T00:41:38.065Z,48.00
2023-03-26T00:43:52.057Z,48.15
2023-03-26T00:46:05.332Z,48.06
2023-03-26T00:48:18.766Z,47.89
2023-03-26T00:50:32.752Z,47.90
2023-03-26T00:52:47.259Z,47.95
2023-03-26T00:55:00.480Z,47.87
2023-03-26T00:57:20.303Z,47.83
2023-03-26T00:59:42.157Z,47.94
2023-03-26T01:01:59.411Z,47.92
2023-03-26T01:04:35.851Z,48.09
2023-03-26T01:06:49.763Z,48.39
2023-03-26T01:09:05.300Z,48.95
2023-03-26T01:11:20.993Z,49.50
2023-03-26T01:13:35.045Z,49.65
2023-03-26T01:15:51.474Z,49.74
2023-03-26T01:18:05.933Z,49.75
2023-03-26T01:20:27.651Z,49.82
2023-03-26T01:22:42.099Z,50.00
2023-03-26T01:24:57.476Z,50.44
2023-03-26T01:27:20.133Z,50.37
2023-03-26T01:29:39.137Z,50.80
2023-03-26T01:32:03.001Z,50.97
2023-03-26T01:34:21.955Z,51.32
2023-03-26T01:36:41.668Z,51.60
2023-03-26T01:39:03.438Z,51.56
2023-03-26T01:41:21.175Z,51.74
2023-03-26T01:43:39.687Z,52.08
2023-03-26T01:45:55.499Z,51.87
2023-03-26T01:48:10.526Z,52.48
2023-03-26T01:50:26.926Z,52.66
2023-03-26T01:52:40.602Z,52.90
2023-03-26T01:54:54.555Z,52.80
2023-03-26T01:57:19.085Z,52.70
2023-03-26T01:59:50.719Z,52.92
2023-03-26T02:02:10.095Z,53.51
2023-03-26T02:04:29.910Z,53.19
2023-03-26T02:06:47.863Z,53.41
2023-03-26T02:09:05.840Z,53.83
2023-03-26T02:11:20.093Z,53.60
2023-03-26T02:13:33.720Z,53.81
2023-03-26T02:15:57.641Z,54.13
2023-03-26T02:18:14.669Z,53.88
2023-03-26T02:20:31.092Z,53.98
2023-03-26T02:22:46.840Z,54.20
2023-03-26T02:25:02.767Z,54.11
2023-03-26T02:27:21.308Z,54.25
2023-03-26T02:29:38.799Z,54.45
2023-03-26T02:31:52.710Z,54.38
2023-03-26T02:34:06.606Z,54.74
2023-03-26T02:36:25.396Z,54.79
2023-03-26T02:38:42.819Z,54.95
2023-03-26T02:40:56.234Z,55.11
2023-03-26T02:43:12.543Z,55.04
2023-03-26T02:45:26.013Z,54.97
2023-03-26T02:47:52.231Z,55.31
2023-03-26T02:50:25.274Z,55.32
2023-03-26T02:52:56.622Z,55.72
2023-03-26T02:55:12.001Z,55.73
2023-03-26T02:57:28.252Z,55.95
2023-03-26T03:00:17.092Z,55.97
2023-03-26T03:02:39.148Z,56.27
2023-03-26T03:05:15.158Z,56.39
2023-03-26T03:07:28.243Z,56.64
2023-03-26T03:09:42.656Z,56.60
2023-03-26T03:12:15.622Z,56.90
2023-03-26T03:14:28.530Z,56.95
2023-03-26T03:16:42.252Z,57.07
2023-03-26T03:18:58.283Z,57.20
2023-03-26T03:21:20.381Z,57.42
2023-03-26T03:23:33.761Z,57.52
2023-03-26T03:25:58.194Z,57.76
2023-03-26T03:28:12.187Z,58.06
2023-03-26T03:30:24.966Z,58.01
2023-03-26T03:32:59.518Z,58.14
2023-03-26T03:35:14.053Z,58.30
2023-03-26T03:37:29.282Z,58.49
2023-03-26T03:39:43.945Z,58.58
2023-03-26T03:41:58.081Z,58.65
2023-03-26T03:44:12.107Z,58.67
2023-03-26T03:46:25.413Z,58.66
2023-03-26T03:48:41.042Z,58.68
2023-03-26T03:50:54.911Z,58.84
2023-03-26T03:53:10.797Z,58.93
2023-03-26T03:55:25.132Z,58.87
2023-03-26T03:57:40.292Z,59.01
2023-03-26T03:59:59.202Z,59.11
2023-03-26T04:02:13.962Z,59.12
2023-03-26T04:04:41.186Z,59.19
2023-03-26T04:06:59.392Z,59.48
2023-03-26T04:09:16.729Z,59.51
2023-03-26T04:11:31.147Z,59.57
2023-03-26T04:14:16.557Z,59.69
2023-03-26T04:16:43.253Z,59.78
2023-03-26T04:18:56.155Z,60.07
2023-03-26T04:21:10.369Z,60.05
2023-03-26T04:23:24.830Z,60.17
2023-03-26T04:25:43.190Z,60.18
2023-03-26T04:28:07.723Z,60.30
2023-03-26T04:30:43.524Z,60.36
2023-03-26T04:33:18.322Z,60.51
2023-03-26T04:35:31.674Z,60.50
2023-03-26T04:37:47.076Z,60.59
2023-03-26T04:40:03.515Z,60.64
2023-03-26T04:42:36.343Z,60.78
2023-03-26T04:45:00.858Z,60.90
2023-03-26T04:47:15.227Z,60.83
2023-03-26T04:49:31.587Z,60.88
2023-03-26T04:51:47.438Z,61.06
2023-03-26T04:54:19.619Z,61.19
2023-03-26T04:56:44.472Z,61.15
2023-03-26T04:59:31.416Z,61.16
2023-03-26T05:01:46.816Z,61.20
2023-03-26T05:04:01.225Z,61.32
2023-03-26T05:06:17.442Z,61.51
2023-03-26T05:08:31.250Z,61.54
2023-03-26T05:10:44.032Z,61.59
2023-03-26T05:13:06.658Z,61.81
2023-03-26T05:15:22.414Z,61.98
2023-03-26T05:17:56.556Z,62.11
2023-03-26T05:20:22.246Z,62.06
2023-03-26T05:22:37.940Z,62.09
2023-03-26T05:25:00.170Z,62.37
2023-03-26T05:27:17.935Z,62.32
2023-03-26T05:29:30.723Z,62.48
2023-03-26T05:31:43.876Z,62.61
2023-03-26T05:33:56.593Z,62.62
2023-03-26T05:36:14.372Z,62.66
2023-03-26T05:38:31.783Z,62.76
2023-03-26T05:40:45.044Z,62.86
2023-03-26T05:43:02.613Z,63.00
2023-03-26T05:45:23.506Z,62.94
2023-03-26T05:47:37.520Z,62.91
2023-03-26T05:49:50.607Z,62.92
2023-03-26T05:55:56.872Z,63.38
2023-03-26T05:58:28.522Z,63.53
2023-03-26T06:01:09.621Z,63.66
2023-03-26T06:03:44.291Z,63.70
2023-03-26T06:06:02.626Z,63.84
2023-03-26T06:08:25.135Z,64.17
2023-03-26T06:10:40.313Z,64.06
2023-03-26T06:12:54.418Z,64.22
2023-03-26T06:15:08.318Z,64.16
2023-03-26T06:17:44.009Z,64.35
2023-03-26T06:20:18.431Z,64.46
2023-03-26T06:22:34.491Z,64.37
2023-03-26T06:25:02.435Z,64.51
2023-03-26T06:27:36.910Z,64.72
2023-03-26T06:30:28.358Z,64.88
2023-03-26T06:33:14.097Z,64.79
2023-03-26T06:35:32.173Z,64.94
2023-03-26T06:37:45.121Z,64.97
2023-03-26T06:39:59.118Z,65.16
2023-03-26T06:43:06.457Z,65.27
2023-03-26T06:45:33.017Z,65.14
2023-03-26T06:48:23.610Z,65.42
2023-03-26T06:51:01.271Z,65.51
2023-03-26T06:53:32.525Z,65.53
2023-03-26T06:56:24.188Z,65.82
2023-03-26T06:59:05.792Z,65.77
2023-03-26T07:01:37.387Z,66.12
2023-03-26T07:04:08.251Z,66.19
2023-03-26T07:06:40.075Z,66.10
2023-03-26T07:09:11.285Z,66.39
2023-03-26T07:11:42.990Z,66.55
2023-03-26T07:14:18.030Z,66.62
2023-03-26T07:16:52.851Z,66.82
2023-03-26T07:19:34.882Z,66.66
2023-03-26T07:21:50.329Z,66.86
2023-03-26T07:24:30.189Z,66.90
2023-03-26T07:27:04.810Z,67.04
2023-03-26T07:29:37.080Z,67.21
2023-03-26T07:32:11.021Z,67.30
2023-03-26T07:34:54.641Z,67.18
2023-03-26T07:37:34.241Z,67.22
2023-03-26T07:40:12.792Z,67.29
2023-03-26T07:43:04.221Z,67.78
2023-03-26T07:45:53.355Z,67.58
2023-03-26T07:48:22.214Z,67.57
2023-03-26T07:50:55.561Z,67.83
2023-03-26T07:53:33.440Z,67.58
2023-03-26T07:56:23.264Z,68.10
2023-03-26T07:59:14.537Z,68.04
2023-03-26T08:02:05.478Z,68.14
2023-03-26T08:04:56.629Z,68.03
2023-03-26T08:07:32.792Z,68.03
2023-03-26T08:10:12.030Z,68.06
2023-03-26T08:12:48.729Z,67.89
2023-03-26T08:15:10.057Z,68.30
2023-03-26T08:17:31.875Z,67.96
2023-03-26T08:20:01.187Z,68.31
2023-03-26T08:22:21.838Z,67.97
2023-03-26T08:24:44.561Z,68.34
2023-03-26T08:27:05.105Z,68.29
2023-03-26T08:29:29.998Z,68.22
2023-03-26T08:31:47.645Z,68.00
2023-03-26T08:34:00.500Z,68.43
2023-03-26T08:36:15.383Z,68.35
2023-03-26T08:38:29.356Z,68.36
2023-03-26T08:41:12.823Z,68.37
2023-03-26T08:46:52.985Z,67.92
2023-03-26T08:49:24.506Z,67.88
2023-03-26T08:52:04.990Z,68.08
2023-03-26T08:54:51.053Z,68.14
2023-03-26T08:57:24.969Z,68.17
2023-03-26T09:00:09.944Z,68.35
2023-03-26T09:02:51.069Z,68.21
2023-03-26T09:05:35.463Z,68.04
2023-03-26T09:08:20.432Z,68.38
2023-03-26T09:10:55.582Z,68.33
2023-03-26T09:13:35.896Z,68.48
2023-03-26T09:16:18.809Z,68.07
2023-03-26T09:19:15.365Z,68.36
2023-03-26T09:21:57.867Z,68.39
2023-03-26T09:24:39.613Z,68.45
2023-03-26T09:27:02.058Z,68.62
2023-03-26T09:29:47.372Z,68.33
2023-03-26T09:32:30.942Z,68.67
2023-03-26T09:35:05.786Z,68.80
2023-03-26T09:37:35.713Z,68.64
2023-03-26T09:40:23.892Z,69.00
2023-03-26T09:42:46.894Z,68.82
2023-03-26T09:45:34.221Z,68.68
2023-03-26T09:48:17.216Z,69.00
2023-03-26T09:50:53.724Z,68.97
2023-03-26T09:53:21.833Z,69.06
2023-03-26T09:55:47.119Z,69.13
2023-03-26T09:58:24.511Z,69.53
2023-03-26T10:00:48.318Z,69.50
2023-03-26T10:03:22.013Z,69.66
2023-03-26T10:05:52.059Z,69.56
2023-03-26T10:08:15.667Z,69.78
2023-03-26T10:10:34.696Z,69.82
2023-03-26T10:12:51.722Z,70.00
2023-03-26T10:15:17.098Z,69.70
2023-03-26T10:17:46.894Z,69.91
2023-03-26T10:20:18.766Z,69.99
2023-03-26T10:22:47.110Z,69.68
2023-03-26T10:25:42.472Z,69.66
2023-03-26T10:28:04.480Z,69.98
2023-03-26T10:31:07.114Z,70.11
2023-03-26T10:33:25.164Z,70.07
2023-03-26T10:35:50.633Z,70.29
2023-03-26T10:38:21.887Z,70.21
2023-03-26T10:40:44.134Z,70.12
2023-03-26T10:43:31.593Z,70.17
2023-03-26T10:46:19.108Z,70.44
2023-03-26T10:48:44.181Z,70.31
2023-03-26T10:51:23.430Z,70.15
2023-03-26T10:53:46.972Z,70.18
2023-03-26T10:56:11.942Z,69.89
2023-03-26T10:58:28.803Z,70.37
2023-03-26T11:00:46.045Z,70.34
2023-03-26T11:03:29.595Z,70.56
2023-03-26T11:05:54.968Z,70.46
2023-03-26T11:08:12.744Z,70.83
2023-03-26T11:10:32.917Z,70.48
2023-03-26T11:12:49.820Z,70.93
2023-03-26T11:15:21.151Z,70.92
2023-03-26T11:17:44.997Z,71.10
2023-03-26T11:20:04.686Z,71.03
2023-03-26T11:22:30.725Z,70.95
2023-03-26T11:25:05.647Z,71.12
2023-03-26T11:27:27.483Z,70.71
2023-03-26T11:29:48.586Z,70.87
2023-03-26T11:32:09.184Z,71.18
2023-03-26T11:34:26.374Z,71.17
2023-03-26T11:36:44.128Z,70.97
2023-03-26T11:38:59.145Z,71.13
2023-03-26T11:41:23.458Z,71.38
2023-03-26T11:43:41.746Z,71.57
2023-03-26T11:45:56.796Z,71.81
2023-03-26T11:48:18.173Z,71.72
2023-03-26T11:50:34.011Z,71.55
2023-03-26T11:52:47.443Z,71.77
2023-03-26T11:55:00.496Z,71.67
2023-03-26T11:57:17.228Z,71.57
2023-03-26T11:59:45.157Z,71.57
2023-03-26T12:02:20.052Z,71.49
2023-03-26T12:04:38.977Z,71.80
2023-03-26T12:07:00.785Z,71.81
2023-03-26T12:09:22.566Z,71.99
2023-03-26T12:11:37.482Z,72.08
2023-03-26T12:13:58.573Z,72.01
2023-03-26T12:16:17.082Z,71.66
2023-03-26T12:18:33.162Z,71.81
2023-03-26T12:20:46.129Z,71.94
2023-03-26T12:23:02.610Z,72.24
2023-03-26T12:25:24.565Z,72.14
2023-03-26T12:27:39.142Z,71.98
2023-03-26T12:30:01.513Z,72.15
2023-03-26T12:32:19.669Z,72.13
2023-03-26T12:34:36.903Z,72.46
2023-03-26T12:36:54.331Z,72.26
2023-03-26T12:40:09.516Z,72.29
2023-03-26T12:44:44.988Z,72.33
2023-03-26T12:44:57.519Z,72.32
2023-03-26T12:47:57.877Z,72.41
2023-03-26T12:50:04.929Z,72.19
2023-03-26T12:52:41.530Z,72.53
2023-03-26T12:55:02.137Z,72.75
2023-03-26T12:57:31.857Z,72.78
2023-03-26T12:59:56.818Z,72.68
2023-03-26T13:02:26.498Z,72.91
2023-03-26T13:05:06.425Z,73.09
2023-03-26T13:07:32.416Z,73.22
2023-03-26T13:10:04.344Z,73.35
2023-03-26T13:12:27.431Z,73.54
2023-03-26T13:15:09.568Z,73.31
2023-03-26T13:17:33.646Z,73.40
2023-03-26T13:19:54.616Z,73.67
2023-03-26T13:22:19.376Z,73.61
2023-03-26T13:24:43.415Z,73.58
2023-03-26T13:27:08.360Z,73.87
2023-03-26T13:29:29.861Z,73.90
2023-03-26T13:31:48.386Z,73.77
2023-03-26T13:34:13.290Z,73.79
2023-03-26T13:36:31.886Z,73.84
2023-03-26T13:38:59.213Z,73.78
2023-03-26T13:41:22.194Z,73.80
2023-03-26T13:43:44.885Z,73.83
2023-03-26T13:46:09.805Z,73.85
2023-03-26T13:48:26.640Z,73.87
2023-03-26T13:50:44.199Z,74.08
2023-03-26T13:53:01.827Z,74.17
2023-03-26T13:55:26.091Z,74.13
2023-03-26T13:57:44.899Z,74.21
2023-03-26T14:00:03.722Z,74.11
2023-03-26T14:02:31.078Z,74.06
2023-03-26T14:04:49.369Z,74.39
2023-03-26T14:07:12.382Z,74.29
2023-03-26T14:09:29.677Z,73.94
2023-03-26T14:11:56.376Z,73.95
2023-03-26T14:14:13.742Z,74.40
2023-03-26T14:16:30.084Z,74.40
2023-03-26T14:18:48.377Z,74.30
2023-03-26T14:21:28.739Z,74.38
2023-03-26T14:24:07.722Z,74.45
2023-03-26T14:26:32.391Z,74.30
2023-03-26T14:29:09.785Z,74.53
2023-03-26T14:31:32.788Z,74.73
2023-03-26T14:34:13.224Z,74.61
2023-03-26T14:36:39.479Z,74.67
2023-03-26T14:39:31.142Z,74.29
2023-03-26T14:41:50.413Z,74.29
2023-03-26T14:44:47.699Z,74.39
2023-03-26T14:47:18.657Z,74.25
2023-03-26T14:49:58.286Z,74.20
2023-03-26T14:52:19.454Z,74.26
2023-03-26T14:54:34.645Z,74.02
2023-03-26T14:57:03.629Z,74.12
2023-03-26T14:59:51.132Z,74.15
2023-03-26T15:02:47.452Z,74.10
2023-03-26T15:05:23.280Z,74.40
2023-03-26T15:08:14.776Z,74.05
2023-03-26T15:10:57.657Z,74.15
2023-03-26T15:13:39.525Z,74.12
2023-03-26T15:16:39.325Z,74.33
2023-03-26T15:19:23.906Z,74.05
2023-03-26T15:22:05.501Z,74.32
2023-03-26T15:24:40.579Z,74.07
2023-03-26T15:27:34.416Z,73.85
2023-03-26T15:30:18.704Z,73.93
2023-03-26T15:33:14.044Z,73.98
2023-03-26T15:36:02.223Z,74.02
2023-03-26T15:38:51.590Z,74.14
2023-03-26T15:41:15.366Z,74.23
2023-03-26T15:43:32.685Z,74.30
2023-03-26T15:45:48.714Z,74.30
2023-03-26T15:48:35.386Z,74.42
2023-03-26T15:51:00.864Z,74.33
2023-03-26T15:53:26.306Z,74.14
2023-03-26T15:55:44.880Z,74.18
2023-03-26T15:58:05.287Z,74.10
2023-03-26T16:00:30.205Z,74.09
2023-03-26T16:02:54.765Z,74.00
2023-03-26T16:05:28.684Z,73.95
2023-03-26T16:07:59.865Z,73.97
2023-03-26T16:10:32.037Z,73.63
2023-03-26T16:12:57.406Z,73.31
2023-03-26T16:15:30.771Z,73.43
2023-03-26T16:18:12.979Z,73.26
2023-03-26T16:20:34.423Z,73.32
2023-03-26T16:23:04.263Z,73.35
2023-03-26T16:25:37.408Z,73.53
2023-03-26T16:28:08.732Z,73.53
2023-03-26T16:30:38.187Z,73.29
2023-03-26T16:32:51.720Z,73.26
2023-03-26T16:35:06.938Z,72.89
2023-03-26T16:37:45.066Z,73.29
2023-03-26T16:40:21.548Z,72.84
2023-03-26T16:42:41.846Z,72.89
2023-03-26T16:45:03.385Z,72.89
2023-03-26T16:47:24.964Z,72.86
2023-03-26T16:50:08.932Z,72.55
2023-03-26T16:52:46.777Z,72.61
2023-03-26T16:55:07.686Z,72.57
2023-03-26T16:57:33.126Z,72.50
2023-03-26T17:00:08.308Z,72.56
2023-03-26T17:02:29.803Z,72.62
2023-03-26T17:04:47.022Z,72.45
2023-03-26T17:07:15.048Z,72.34
2023-03-26T17:09:37.245Z,72.54
2023-03-26T17:11:59.410Z,72.04
2023-03-26T17:14:19.655Z,72.10
2023-03-26T17:16:36.981Z,72.12
2023-03-26T17:19:01.669Z,71.97
2023-03-26T17:21:19.445Z,71.99
2023-03-26T17:24:01.478Z,71.72
2023-03-26T17:26:22.777Z,72.02
2023-03-26T17:28:51.700Z,72.14
2023-03-26T17:31:17.213Z,72.27
2023-03-26T17:33:35.890Z,72.53
2023-03-26T17:36:25.353Z,71.73
2023-03-26T17:39:13.423Z,71.09
2023-03-26T17:41:55.515Z,70.63
2023-03-26T17:44:31.054Z,70.31
2023-03-26T17:46:48.466Z,70.34
2023-03-26T17:49:07.954Z,69.88
2023-03-26T17:51:41.307Z,69.53
2023-03-26T17:53:55.280Z,69.01
2023-03-26T17:56:15.538Z,69.03
2023-03-26T17:58:34.462Z,69.80
2023-03-26T18:00:53.188Z,69.18
2023-03-26T18:03:09.433Z,68.71
2023-03-26T18:05:23.306Z,68.51
2023-03-26T18:08:07.496Z,68.63
2023-03-26T18:10:36.291Z,68.60
2023-03-26T18:13:04.234Z,68.62
2023-03-26T18:15:38.274Z,68.42
2023-03-26T18:17:52.298Z,68.14
2023-03-26T18:20:10.979Z,68.11
2023-03-26T18:22:27.859Z,67.77
2023-03-26T18:24:44.622Z,67.59
2023-03-26T18:27:01.927Z,67.44
2023-03-26T18:29:24.792Z,67.24
2023-03-26T18:31:39.244Z,66.51
2023-03-26T18:33:54.172Z,66.69
2023-03-26T18:36:07.129Z,66.38
2023-03-26T18:38:35.052Z,66.26
2023-03-26T18:40:51.521Z,65.80
2023-03-26T18:43:05.443Z,65.95
2023-03-26T18:45:28.005Z,65.31
2023-03-26T18:47:41.488Z,65.10
2023-03-26T18:49:58.742Z,64.02
2023-03-26T18:52:13.253Z,63.55
2023-03-26T18:54:26.829Z,63.61
2023-03-26T18:56:42.815Z,63.23
2023-03-26T18:59:00.585Z,63.15
2023-03-26T19:01:25.032Z,62.60
2023-03-26T19:03:41.915Z,62.15
2023-03-26T19:05:55.607Z,61.76
2023-03-26T19:08:09.961Z,61.65
2023-03-26T19:10:26.211Z,61.75
2023-03-26T19:12:38.972Z,61.53
2023-03-26T19:15:10.022Z,61.11
2023-03-26T19:17:23.042Z,59.28
2023-03-26T19:19:39.670Z,59.15
2023-03-26T19:21:54.194Z,59.31
2023-03-26T19:24:08.323Z,59.01
2023-03-26T19:26:22.559Z,58.39
2023-03-26T19:28:38.444Z,58.11
2023-03-26T19:30:55.831Z,57.77
2023-03-26T19:33:19.465Z,57.42
2023-03-26T19:35:39.647Z,57.08
2023-03-26T19:37:57.687Z,57.02
2023-03-26T19:40:22.311Z,55.57
2023-03-26T19:42:43.295Z,55.42
2023-03-26T19:44:58.021Z,54.68
2023-03-26T19:47:18.307Z,52.84
2023-03-26T19:49:34.948Z,53.12
2023-03-26T19:51:47.575Z,53.36
2023-03-26T19:54:02.320Z,53.35
2023-03-26T19:56:20.653Z,52.90
2023-03-26T19:58:33.863Z,53.38
2023-03-26T20:00:46.611Z,53.20
2023-03-26T20:02:59.761Z,53.26
2023-03-26T20:05:24.053Z,53.46
2023-03-26T20:07:40.367Z,53.17
2023-03-26T20:09:53.541Z,53.30
2023-03-26T20:12:06.038Z,52.86
2023-03-26T20:14:26.878Z,52.52
2023-03-26T20:16:41.645Z,52.60
2023-03-26T20:18:58.439Z,52.03
2023-03-26T20:21:15.813Z,51.57
2023-03-26T20:23:29.837Z,51.38
2023-03-26T20:25:50.929Z,51.58
2023-03-26T20:28:04.354Z,51.77
2023-03-26T20:30:27.493Z,51.96
2023-03-26T20:32:50.848Z,51.57
2023-03-26T20:35:35.868Z,51.10
2023-03-26T20:37:49.486Z,50.34
2023-03-26T20:40:02.106Z,50.17
2023-03-26T20:42:16.136Z,49.41
2023-03-26T20:44:30.571Z,49.18
2023-03-26T20:46:43.725Z,49.42
2023-03-26T20:48:57.572Z,49.13
2023-03-26T20:51:13.726Z,49.09
2023-03-26T20:53:26.875Z,48.69
2023-03-26T20:55:39.792Z,48.58
2023-03-26T20:57:52.847Z,48.92
2023-03-26T21:00:10.122Z,49.15
2023-03-26T21:02:23.329Z,49.26
2023-03-26T21:04:36.410Z,49.34
2023-03-26T21:06:53.268Z,49.33
2023-03-26T21:09:09.087Z,49.59
2023-03-26T21:11:29.178Z,49.53
2023-03-26T21:13:44.159Z,49.20
2023-03-26T21:16:00.478Z,49.03
2023-03-26T21:18:15.251Z,48.41
2023-03-26T21:20:30.270Z,48.42
2023-03-26T21:22:52.972Z,48.53
2023-03-26T21:25:19.289Z,48.48
2023-03-26T21:27:42.525Z,48.55
2023-03-26T21:29:56.945Z,48.66
2023-03-26T21:32:13.425Z,48.60
2023-03-26T21:34:28.898Z,48.49
2023-03-26T21:36:43.723Z,48.07
2023-03-26T21:38:57.690Z,47.50
2023-03-26T21:41:19.408Z,47.42
2023-03-26T21:43:33.532Z,47.56
2023-03-26T21:45:47.053Z,47.48
2023-03-26T21:48:01.014Z,47.94
2023-03-26T21:50:16.886Z,47.95
2023-03-26T21:52:33.216Z,47.84
2023-03-26T21:54:46.938Z,47.48
2023-03-26T21:57:18.659Z,47.50
2023-03-26T21:59:39.599Z,46.99
2023-03-26T22:01:58.740Z,47.01
2023-03-26T22:04:19.096Z,47.08
2023-03-26T22:06:38.078Z,46.98
2023-03-26T22:08:51.435Z,46.95
2023-03-26T22:11:04.194Z,47.18
2023-03-26T22:13:16.820Z,46.96
2023-03-26T22:15:31.526Z,47.51
2023-03-26T22:17:44.452Z,48.26
2023-03-26T22:19:57.555Z,48.83
2023-03-26T22:22:10.339Z,49.35
2023-03-26T22:24:23.692Z,49.88
2023-03-26T22:26:39.402Z,49.90
2023-03-26T22:28:53.011Z,50.35
2023-03-26T22:31:11.681Z,50.78
2023-03-26T22:33:24.681Z,51.03
2023-03-26T22:35:38.536Z,51.63
2023-03-26T22:37:51.586Z,52.02
2023-03-26T22:40:06.526Z,51.83
2023-03-26T22:42:20.578Z,52.03
2023-03-26T22:44:33.063Z,52.37
2023-03-26T22:46:46.019Z,52.59
2023-03-26T22:48:59.400Z,52.37
2023-03-26T22:51:13.856Z,52.75
2023-03-26T22:53:26.817Z,53.26
2023-03-26T22:55:39.536Z,53.36
2023-03-26T22:57:52.025Z,53.33
2023-03-26T23:00:14.712Z,53.65
2023-03-26T23:02:27.403Z,54.08
2023-03-26T23:04:40.638Z,54.28
2023-03-26T23:06:54.465Z,54.75
2023-03-26T23:09:09.101Z,55.14
2023-03-26T23:11:24.339Z,55.70
2023-03-26T23:13:37.775Z,55.92
2023-03-26T23:15:55.499Z,56.29
2023-03-26T23:18:08.078Z,56.56
2023-03-26T23:20:23.182Z,56.88
2023-03-26T23:22:36.488Z,57.28
2023-03-26T23:24:49.301Z,57.31
2023-03-26T23:27:02.851Z,57.60
2023-03-26T23:29:15.370Z,57.32
2023-03-26T23:31:28.396Z,57.97
2023-03-26T23:33:47.275Z,57.99
2023-03-26T23:36:01.323Z,58.26
2023-03-26T23:38:15.855Z,58.16
2023-03-26T23:40:28.447Z,58.65
2023-03-26T23:42:41.248Z,58.66
2023-03-26T23:44:57.633Z,58.53
2023-03-26T23:47:11.375Z,58.29
2023-03-26T23:49:24.825Z,58.07
2023-03-26T23:51:38.438Z,58.08
2023-03-26T23:53:51.385Z,57.87
2023-03-26T23:56:04.734Z,57.93
2023-03-26T23:58:17.507Z,57.60
